sensor_id;sensor_type;location;lat;lon;timestamp;temperature;humidity
46784;DHT22;32544;52.832;13.816;2022-07-29T00:00:10;24.90;43.70
46784;DHT22;32544;52.832;13.816;2022-07-29T00:01:13;24.80;43.60
46784;DHT22;32544;52.832;13.816;2022-07-29T00:02:14;24.80;43.60
46784;DHT22;32544;52.832;13.816;2022-07-29T00:03:15;24.80;43.70
46784;DHT22;32544;52.832;13.816;2022-07-29T00:04:15;24.80;43.60
46784;DHT22;32544;52.832;13.816;2022-07-29T00:05:16;24.80;43.60
46784;DHT22;32544;52.832;13.816;2022-07-29T00:06:17;24.80;43.60
46784;DHT22;32544;52.832;13.816;2022-07-29T00:07:17;24.80;43.60
46784;DHT22;32544;52.832;13.816;2022-07-29T00:08:18;24.80;43.70
46784;DHT22;32544;52.832;13.816;2022-07-29T00:09:19;24.80;43.70
46784;DHT22;32544;52.832;13.816;2022-07-29T00:10:20;24.80;43.70
46784;DHT22;32544;52.832;13.816;2022-07-29T00:11:20;24.80;43.70
46784;DHT22;32544;52.832;13.816;2022-07-29T00:12:22;24.80;43.60
46784;DHT22;32544;52.832;13.816;2022-07-29T00:13:23;24.80;43.70
46784;DHT22;32544;52.832;13.816;2022-07-29T00:14:23;24.80;43.60
46784;DHT22;32544;52.832;13.816;2022-07-29T00:15:24;24.80;43.60
46784;DHT22;32544;52.832;13.816;2022-07-29T00:16:25;24.80;43.60
46784;DHT22;32544;52.832;13.816;2022-07-29T00:17:26;24.80;43.60
46784;DHT22;32544;52.832;13.816;2022-07-29T00:18:26;24.80;43.70
46784;DHT22;32544;52.832;13.816;2022-07-29T00:19:27;24.80;43.70
46784;DHT22;32544;52.832;13.816;2022-07-29T00:20:27;24.80;43.60
46784;DHT22;32544;52.832;13.816;2022-07-29T00:21:28;24.80;43.60
46784;DHT22;32544;52.832;13.816;2022-07-29T00:22:29;24.80;43.70
46784;DHT22;32544;52.832;13.816;2022-07-29T00:23:29;24.80;43.60
46784;DHT22;32544;52.832;13.816;2022-07-29T00:24:30;24.80;43.60
46784;DHT22;32544;52.832;13.816;2022-07-29T00:25:30;24.80;43.60
46784;DHT22;32544;52.832;13.816;2022-07-29T00:26:31;24.80;43.60
46784;DHT22;32544;52.832;13.816;2022-07-29T00:27:33;24.80;43.70
46784;DHT22;32544;52.832;13.816;2022-07-29T00:28:33;24.80;43.70
46784;DHT22;32544;52.832;13.816;2022-07-29T00:29:34;24.80;43.70
46784;DHT22;32544;52.832;13.816;2022-07-29T00:30:34;24.80;43.70
46784;DHT22;32544;52.832;13.816;2022-07-29T00:31:35;24.80;43.70
46784;DHT22;32544;52.832;13.816;2022-07-29T00:32:36;24.80;43.70
46784;DHT22;32544;52.832;13.816;2022-07-29T00:33:36;24.80;43.80
46784;DHT22;32544;52.832;13.816;2022-07-29T00:34:37;24.80;43.80
46784;DHT22;32544;52.832;13.816;2022-07-29T00:35:57;24.80;43.70
46784;DHT22;32544;52.832;13.816;2022-07-29T00:36:57;24.80;43.70
46784;DHT22;32544;52.832;13.816;2022-07-29T00:37:58;24.80;43.70
46784;DHT22;32544;52.832;13.816;2022-07-29T00:38:58;24.80;43.70
46784;DHT22;32544;52.832;13.816;2022-07-29T00:39:59;24.80;43.70
46784;DHT22;32544;52.832;13.816;2022-07-29T00:41:00;24.80;43.80
46784;DHT22;32544;52.832;13.816;2022-07-29T00:42:02;24.80;43.80
46784;DHT22;32544;52.832;13.816;2022-07-29T00:43:03;24.80;43.90
46784;DHT22;32544;52.832;13.816;2022-07-29T00:44:03;24.80;43.80
46784;DHT22;32544;52.832;13.816;2022-07-29T00:45:04;24.80;43.70
46784;DHT22;32544;52.832;13.816;2022-07-29T00:46:05;24.80;43.80
46784;DHT22;32544;52.832;13.816;2022-07-29T00:47:06;24.80;43.70
46784;DHT22;32544;52.832;13.816;2022-07-29T00:48:06;24.80;43.70
46784;DHT22;32544;52.832;13.816;2022-07-29T00:49:08;24.80;43.70
46784;DHT22;32544;52.832;13.816;2022-07-29T00:50:10;24.80;43.70
46784;DHT22;32544;52.832;13.816;2022-07-29T00:51:12;24.80;43.70
46784;DHT22;32544;52.832;13.816;2022-07-29T00:52:12;24.80;43.70
46784;DHT22;32544;52.832;13.816;2022-07-29T00:53:13;24.80;43.70
46784;DHT22;32544;52.832;13.816;2022-07-29T00:54:14;24.80;43.70
46784;DHT22;32544;52.832;13.816;2022-07-29T00:55:15;24.80;43.70
46784;DHT22;32544;52.832;13.816;2022-07-29T00:56:16;24.80;43.70
46784;DHT22;32544;52.832;13.816;2022-07-29T00:57:16;24.80;43.60
46784;DHT22;32544;52.832;13.816;2022-07-29T00:58:17;24.80;43.60
46784;DHT22;32544;52.832;13.816;2022-07-29T00:59:17;24.80;43.70
46784;DHT22;32544;52.832;13.816;2022-07-29T01:00:22;24.80;43.70
46784;DHT22;32544;52.832;13.816;2022-07-29T01:01:24;24.80;43.60
46784;DHT22;32544;52.832;13.816;2022-07-29T01:02:24;24.80;43.70
46784;DHT22;32544;52.832;13.816;2022-07-29T01:03:25;24.80;43.70
46784;DHT22;32544;52.832;13.816;2022-07-29T01:04:26;24.80;43.70
46784;DHT22;32544;52.832;13.816;2022-07-29T01:05:27;24.80;43.70
46784;DHT22;32544;52.832;13.816;2022-07-29T01:06:28;24.80;43.70
46784;DHT22;32544;52.832;13.816;2022-07-29T01:07:29;24.80;43.70
46784;DHT22;32544;52.832;13.816;2022-07-29T01:08:30;24.80;43.70
46784;DHT22;32544;52.832;13.816;2022-07-29T01:09:32;24.80;43.70
46784;DHT22;32544;52.832;13.816;2022-07-29T01:10:33;24.80;43.70
46784;DHT22;32544;52.832;13.816;2022-07-29T01:11:34;24.80;43.70
46784;DHT22;32544;52.832;13.816;2022-07-29T01:12:39;24.80;43.70
46784;DHT22;32544;52.832;13.816;2022-07-29T01:13:40;24.80;43.70
46784;DHT22;32544;52.832;13.816;2022-07-29T01:14:41;24.80;43.70
46784;DHT22;32544;52.832;13.816;2022-07-29T01:16:03;24.80;43.70
46784;DHT22;32544;52.832;13.816;2022-07-29T01:17:10;24.80;43.70
46784;DHT22;32544;52.832;13.816;2022-07-29T01:18:16;24.80;43.70
46784;DHT22;32544;52.832;13.816;2022-07-29T01:20:31;24.80;43.70
46784;DHT22;32544;52.832;13.816;2022-07-29T01:21:51;24.80;43.80
46784;DHT22;32544;52.832;13.816;2022-07-29T01:23:01;24.80;43.80
46784;DHT22;32544;52.832;13.816;2022-07-29T01:30:04;24.70;44.00
46784;DHT22;32544;52.832;13.816;2022-07-29T01:31:05;24.70;44.00
46784;DHT22;32544;52.832;13.816;2022-07-29T01:32:08;24.70;44.00
46784;DHT22;32544;52.832;13.816;2022-07-29T01:33:11;24.60;44.10
46784;DHT22;32544;52.832;13.816;2022-07-29T01:35:40;24.60;44.20
46784;DHT22;32544;52.832;13.816;2022-07-29T01:36:47;24.60;44.30
46784;DHT22;32544;52.832;13.816;2022-07-29T01:37:50;24.60;45.00
46784;DHT22;32544;52.832;13.816;2022-07-29T01:41:29;24.60;44.20
46784;DHT22;32544;52.832;13.816;2022-07-29T01:43:41;24.60;44.20
46784;DHT22;32544;52.832;13.816;2022-07-29T01:44:48;24.60;44.20
46784;DHT22;32544;52.832;13.816;2022-07-29T01:45:51;24.70;44.20
46784;DHT22;32544;52.832;13.816;2022-07-29T01:46:54;24.70;44.10
46784;DHT22;32544;52.832;13.816;2022-07-29T01:49:08;24.70;44.10
46784;DHT22;32544;52.832;13.816;2022-07-29T01:50:11;24.70;44.10
46784;DHT22;32544;52.832;13.816;2022-07-29T01:52:36;24.70;44.00
46784;DHT22;32544;52.832;13.816;2022-07-29T01:55:13;24.70;44.00
46784;DHT22;32544;52.832;13.816;2022-07-29T01:56:15;24.70;44.00
46784;DHT22;32544;52.832;13.816;2022-07-29T01:57:17;24.70;44.00
46784;DHT22;32544;52.832;13.816;2022-07-29T01:58:18;24.70;44.00
46784;DHT22;32544;52.832;13.816;2022-07-29T01:59:19;24.70;44.60
46784;DHT22;32544;52.832;13.816;2022-07-29T02:00:20;24.70;44.70
46784;DHT22;32544;52.832;13.816;2022-07-29T02:01:22;24.70;44.00
46784;DHT22;32544;52.832;13.816;2022-07-29T02:02:24;24.70;44.00
46784;DHT22;32544;52.832;13.816;2022-07-29T02:03:26;24.70;44.10
46784;DHT22;32544;52.832;13.816;2022-07-29T02:04:27;24.70;44.10
46784;DHT22;32544;52.832;13.816;2022-07-29T02:05:29;24.70;44.10
46784;DHT22;32544;52.832;13.816;2022-07-29T02:06:30;24.70;44.10
46784;DHT22;32544;52.832;13.816;2022-07-29T02:07:32;24.70;44.10
46784;DHT22;32544;52.832;13.816;2022-07-29T02:08:34;24.70;44.10
46784;DHT22;32544;52.832;13.816;2022-07-29T02:09:35;24.70;44.20
46784;DHT22;32544;52.832;13.816;2022-07-29T02:10:36;24.70;44.20
46784;DHT22;32544;52.832;13.816;2022-07-29T02:11:38;24.70;44.10
46784;DHT22;32544;52.832;13.816;2022-07-29T02:12:40;24.70;44.10
46784;DHT22;32544;52.832;13.816;2022-07-29T02:13:42;24.70;44.10
46784;DHT22;32544;52.832;13.816;2022-07-29T02:14:45;24.70;44.10
46784;DHT22;32544;52.832;13.816;2022-07-29T02:15:47;24.70;44.10
46784;DHT22;32544;52.832;13.816;2022-07-29T02:16:50;24.70;44.00
46784;DHT22;32544;52.832;13.816;2022-07-29T02:17:56;24.70;44.00
46784;DHT22;32544;52.832;13.816;2022-07-29T02:18:57;24.70;44.00
46784;DHT22;32544;52.832;13.816;2022-07-29T02:19:59;24.70;44.00
46784;DHT22;32544;52.832;13.816;2022-07-29T02:21:00;24.70;44.00
46784;DHT22;32544;52.832;13.816;2022-07-29T02:22:01;24.70;44.00
46784;DHT22;32544;52.832;13.816;2022-07-29T02:23:02;24.70;44.00
46784;DHT22;32544;52.832;13.816;2022-07-29T02:24:03;24.70;44.00
46784;DHT22;32544;52.832;13.816;2022-07-29T02:25:05;24.70;44.10
46784;DHT22;32544;52.832;13.816;2022-07-29T02:26:07;24.70;44.10
46784;DHT22;32544;52.832;13.816;2022-07-29T02:27:09;24.70;44.10
46784;DHT22;32544;52.832;13.816;2022-07-29T02:28:09;24.70;44.10
46784;DHT22;32544;52.832;13.816;2022-07-29T02:29:10;24.70;44.20
46784;DHT22;32544;52.832;13.816;2022-07-29T02:30:12;24.70;44.20
46784;DHT22;32544;52.832;13.816;2022-07-29T02:31:13;24.60;44.20
46784;DHT22;32544;52.832;13.816;2022-07-29T02:32:14;24.60;44.20
46784;DHT22;32544;52.832;13.816;2022-07-29T02:33:16;24.60;44.40
46784;DHT22;32544;52.832;13.816;2022-07-29T02:34:18;24.60;44.40
46784;DHT22;32544;52.832;13.816;2022-07-29T02:35:19;24.60;44.40
46784;DHT22;32544;52.832;13.816;2022-07-29T02:36:21;24.60;44.30
46784;DHT22;32544;52.832;13.816;2022-07-29T02:37:22;24.60;44.30
46784;DHT22;32544;52.832;13.816;2022-07-29T02:38:23;24.60;44.40
46784;DHT22;32544;52.832;13.816;2022-07-29T02:39:43;24.70;44.50
46784;DHT22;32544;52.832;13.816;2022-07-29T02:40:45;24.60;44.30
46784;DHT22;32544;52.832;13.816;2022-07-29T02:41:52;24.60;44.30
46784;DHT22;32544;52.832;13.816;2022-07-29T02:42:55;24.60;44.30
46784;DHT22;32544;52.832;13.816;2022-07-29T02:43:56;24.60;44.30
46784;DHT22;32544;52.832;13.816;2022-07-29T02:44:57;24.60;44.30
46784;DHT22;32544;52.832;13.816;2022-07-29T02:45:58;24.60;44.30
46784;DHT22;32544;52.832;13.816;2022-07-29T02:47:19;24.60;44.30
46784;DHT22;32544;52.832;13.816;2022-07-29T02:48:22;24.60;44.30
46784;DHT22;32544;52.832;13.816;2022-07-29T02:50:11;24.60;44.20
46784;DHT22;32544;52.832;13.816;2022-07-29T02:50:54;24.60;44.30
46784;DHT22;32544;52.832;13.816;2022-07-29T02:52:04;24.60;44.30
46784;DHT22;32544;52.832;13.816;2022-07-29T02:53:15;24.60;44.30
46784;DHT22;32544;52.832;13.816;2022-07-29T02:54:26;24.60;44.30
46784;DHT22;32544;52.832;13.816;2022-07-29T02:55:37;24.60;44.20
46784;DHT22;32544;52.832;13.816;2022-07-29T02:56:40;24.60;44.30
46784;DHT22;32544;52.832;13.816;2022-07-29T02:57:44;24.60;44.30
46784;DHT22;32544;52.832;13.816;2022-07-29T02:58:47;24.60;44.30
46784;DHT22;32544;52.832;13.816;2022-07-29T02:59:50;24.60;44.40
46784;DHT22;32544;52.832;13.816;2022-07-29T03:00:51;24.60;44.40
46784;DHT22;32544;52.832;13.816;2022-07-29T03:01:54;24.60;44.40
46784;DHT22;32544;52.832;13.816;2022-07-29T03:02:57;24.50;44.40
46784;DHT22;32544;52.832;13.816;2022-07-29T03:04:00;24.60;44.40
46784;DHT22;32544;52.832;13.816;2022-07-29T03:05:02;24.60;44.30
46784;DHT22;32544;52.832;13.816;2022-07-29T03:06:03;24.60;44.30
46784;DHT22;32544;52.832;13.816;2022-07-29T03:07:04;24.60;44.30
46784;DHT22;32544;52.832;13.816;2022-07-29T03:08:05;24.60;44.30
46784;DHT22;32544;52.832;13.816;2022-07-29T03:09:06;24.60;44.20
46784;DHT22;32544;52.832;13.816;2022-07-29T03:10:08;24.60;44.20
46784;DHT22;32544;52.832;13.816;2022-07-29T03:11:09;24.60;44.20
46784;DHT22;32544;52.832;13.816;2022-07-29T03:12:10;24.60;44.20
46784;DHT22;32544;52.832;13.816;2022-07-29T03:13:11;24.60;44.20
46784;DHT22;32544;52.832;13.816;2022-07-29T03:14:12;24.60;44.50
46784;DHT22;32544;52.832;13.816;2022-07-29T03:15:13;24.60;44.10
46784;DHT22;32544;52.832;13.816;2022-07-29T03:16:14;24.60;44.10
46784;DHT22;32544;52.832;13.816;2022-07-29T03:17:15;24.60;44.10
46784;DHT22;32544;52.832;13.816;2022-07-29T03:18:16;24.60;44.10
46784;DHT22;32544;52.832;13.816;2022-07-29T03:19:18;24.60;44.10
46784;DHT22;32544;52.832;13.816;2022-07-29T03:20:18;24.60;44.10
46784;DHT22;32544;52.832;13.816;2022-07-29T03:21:19;24.70;44.20
46784;DHT22;32544;52.832;13.816;2022-07-29T03:22:20;24.60;44.10
46784;DHT22;32544;52.832;13.816;2022-07-29T03:23:21;24.60;44.10
46784;DHT22;32544;52.832;13.816;2022-07-29T03:24:26;24.60;44.10
46784;DHT22;32544;52.832;13.816;2022-07-29T03:25:27;24.60;44.10
46784;DHT22;32544;52.832;13.816;2022-07-29T03:26:28;24.60;44.10
46784;DHT22;32544;52.832;13.816;2022-07-29T03:27:28;24.60;44.10
46784;DHT22;32544;52.832;13.816;2022-07-29T03:28:29;24.60;44.20
46784;DHT22;32544;52.832;13.816;2022-07-29T03:29:30;24.60;44.30
46784;DHT22;32544;52.832;13.816;2022-07-29T03:30:30;24.60;44.50
46784;DHT22;32544;52.832;13.816;2022-07-29T03:31:31;24.60;44.50
46784;DHT22;32544;52.832;13.816;2022-07-29T03:32:31;24.60;44.50
46784;DHT22;32544;52.832;13.816;2022-07-29T03:33:32;24.60;44.50
46784;DHT22;32544;52.832;13.816;2022-07-29T03:34:33;24.60;44.60
46784;DHT22;32544;52.832;13.816;2022-07-29T03:35:34;24.60;44.60
46784;DHT22;32544;52.832;13.816;2022-07-29T03:36:34;24.60;44.80
46784;DHT22;32544;52.832;13.816;2022-07-29T03:37:35;24.60;44.80
46784;DHT22;32544;52.832;13.816;2022-07-29T03:38:36;24.60;44.70
46784;DHT22;32544;52.832;13.816;2022-07-29T03:39:38;24.60;44.80
46784;DHT22;32544;52.832;13.816;2022-07-29T03:40:43;24.60;44.80
46784;DHT22;32544;52.832;13.816;2022-07-29T03:41:46;24.60;44.80
46784;DHT22;32544;52.832;13.816;2022-07-29T03:42:47;24.60;44.80
46784;DHT22;32544;52.832;13.816;2022-07-29T03:43:50;24.60;44.80
46784;DHT22;32544;52.832;13.816;2022-07-29T03:44:51;24.60;44.80
46784;DHT22;32544;52.832;13.816;2022-07-29T03:45:53;24.60;44.80
46784;DHT22;32544;52.832;13.816;2022-07-29T03:46:55;24.60;44.70
46784;DHT22;32544;52.832;13.816;2022-07-29T03:47:59;24.60;44.70
46784;DHT22;32544;52.832;13.816;2022-07-29T03:49:01;24.60;44.70
46784;DHT22;32544;52.832;13.816;2022-07-29T03:50:05;24.60;44.70
46784;DHT22;32544;52.832;13.816;2022-07-29T03:51:06;24.50;44.70
46784;DHT22;32544;52.832;13.816;2022-07-29T03:52:07;24.50;44.70
46784;DHT22;32544;52.832;13.816;2022-07-29T03:53:07;24.60;44.70
46784;DHT22;32544;52.832;13.816;2022-07-29T03:54:08;24.60;44.80
46784;DHT22;32544;52.832;13.816;2022-07-29T03:55:09;24.50;44.80
46784;DHT22;32544;52.832;13.816;2022-07-29T03:56:10;24.60;44.80
46784;DHT22;32544;52.832;13.816;2022-07-29T03:57:12;24.60;44.80
46784;DHT22;32544;52.832;13.816;2022-07-29T03:58:14;24.60;44.70
46784;DHT22;32544;52.832;13.816;2022-07-29T03:59:14;24.60;44.70
46784;DHT22;32544;52.832;13.816;2022-07-29T04:00:15;24.60;44.70
46784;DHT22;32544;52.832;13.816;2022-07-29T04:01:16;24.50;44.70
46784;DHT22;32544;52.832;13.816;2022-07-29T04:02:18;24.60;44.70
46784;DHT22;32544;52.832;13.816;2022-07-29T04:03:19;24.50;44.60
46784;DHT22;32544;52.832;13.816;2022-07-29T04:04:19;24.60;44.60
46784;DHT22;32544;52.832;13.816;2022-07-29T04:05:20;24.60;44.60
46784;DHT22;32544;52.832;13.816;2022-07-29T04:06:21;24.60;45.20
46784;DHT22;32544;52.832;13.816;2022-07-29T04:07:22;24.60;44.50
46784;DHT22;32544;52.832;13.816;2022-07-29T04:08:22;24.60;44.50
46784;DHT22;32544;52.832;13.816;2022-07-29T04:09:23;24.60;44.50
46784;DHT22;32544;52.832;13.816;2022-07-29T04:10:23;24.60;44.50
46784;DHT22;32544;52.832;13.816;2022-07-29T04:11:24;24.60;44.60
46784;DHT22;32544;52.832;13.816;2022-07-29T04:12:25;24.60;44.60
46784;DHT22;32544;52.832;13.816;2022-07-29T04:13:25;24.60;44.70
46784;DHT22;32544;52.832;13.816;2022-07-29T04:14:26;24.60;44.70
46784;DHT22;32544;52.832;13.816;2022-07-29T04:15:26;24.60;44.80
46784;DHT22;32544;52.832;13.816;2022-07-29T04:16:28;24.50;44.70
46784;DHT22;32544;52.832;13.816;2022-07-29T04:17:29;24.50;44.70
46784;DHT22;32544;52.832;13.816;2022-07-29T04:18:30;24.60;44.80
46784;DHT22;32544;52.832;13.816;2022-07-29T04:19:30;24.60;44.80
46784;DHT22;32544;52.832;13.816;2022-07-29T04:20:31;24.50;44.80
46784;DHT22;32544;52.832;13.816;2022-07-29T04:21:36;24.50;44.90
46784;DHT22;32544;52.832;13.816;2022-07-29T04:22:36;24.50;44.90
46784;DHT22;32544;52.832;13.816;2022-07-29T04:23:37;24.50;45.00
46784;DHT22;32544;52.832;13.816;2022-07-29T04:24:38;24.50;44.90
46784;DHT22;32544;52.832;13.816;2022-07-29T04:25:41;24.50;44.90
46784;DHT22;32544;52.832;13.816;2022-07-29T04:26:43;24.50;45.00
46784;DHT22;32544;52.832;13.816;2022-07-29T04:27:43;24.50;45.00
46784;DHT22;32544;52.832;13.816;2022-07-29T04:29:03;24.50;44.90
46784;DHT22;32544;52.832;13.816;2022-07-29T04:30:04;24.50;44.90
46784;DHT22;32544;52.832;13.816;2022-07-29T04:31:05;24.50;44.90
46784;DHT22;32544;52.832;13.816;2022-07-29T04:32:06;24.50;44.80
46784;DHT22;32544;52.832;13.816;2022-07-29T04:33:06;24.50;44.80
46784;DHT22;32544;52.832;13.816;2022-07-29T04:34:08;24.50;44.90
46784;DHT22;32544;52.832;13.816;2022-07-29T04:35:09;24.50;44.80
46784;DHT22;32544;52.832;13.816;2022-07-29T04:36:09;24.50;44.90
46784;DHT22;32544;52.832;13.816;2022-07-29T04:37:11;24.50;44.90
46784;DHT22;32544;52.832;13.816;2022-07-29T04:38:11;24.50;44.90
46784;DHT22;32544;52.832;13.816;2022-07-29T04:39:12;24.50;44.90
46784;DHT22;32544;52.832;13.816;2022-07-29T04:40:13;24.50;44.90
46784;DHT22;32544;52.832;13.816;2022-07-29T04:41:13;24.50;44.90
46784;DHT22;32544;52.832;13.816;2022-07-29T04:42:14;24.50;44.90
46784;DHT22;32544;52.832;13.816;2022-07-29T04:43:15;24.50;45.00
46784;DHT22;32544;52.832;13.816;2022-07-29T04:44:16;24.50;45.00
46784;DHT22;32544;52.832;13.816;2022-07-29T04:45:16;24.50;45.00
46784;DHT22;32544;52.832;13.816;2022-07-29T04:46:17;24.50;45.00
46784;DHT22;32544;52.832;13.816;2022-07-29T04:47:18;24.50;45.00
46784;DHT22;32544;52.832;13.816;2022-07-29T04:48:18;24.50;45.00
46784;DHT22;32544;52.832;13.816;2022-07-29T04:49:19;24.50;45.00
46784;DHT22;32544;52.832;13.816;2022-07-29T04:50:19;24.50;45.00
46784;DHT22;32544;52.832;13.816;2022-07-29T04:51:20;24.50;44.90
46784;DHT22;32544;52.832;13.816;2022-07-29T04:52:20;24.50;44.90
46784;DHT22;32544;52.832;13.816;2022-07-29T04:53:21;24.50;44.90
46784;DHT22;32544;52.832;13.816;2022-07-29T04:54:22;24.50;44.90
46784;DHT22;32544;52.832;13.816;2022-07-29T04:55:22;24.50;45.00
46784;DHT22;32544;52.832;13.816;2022-07-29T04:56:23;24.50;45.00
46784;DHT22;32544;52.832;13.816;2022-07-29T04:57:23;24.50;45.10
46784;DHT22;32544;52.832;13.816;2022-07-29T04:58:24;24.50;45.10
46784;DHT22;32544;52.832;13.816;2022-07-29T04:59:25;24.50;45.10
46784;DHT22;32544;52.832;13.816;2022-07-29T05:00:26;24.50;45.00
46784;DHT22;32544;52.832;13.816;2022-07-29T05:01:27;24.50;45.00
46784;DHT22;32544;52.832;13.816;2022-07-29T05:02:28;24.50;45.00
46784;DHT22;32544;52.832;13.816;2022-07-29T05:03:28;24.50;45.00
46784;DHT22;32544;52.832;13.816;2022-07-29T05:04:29;24.50;45.00
46784;DHT22;32544;52.832;13.816;2022-07-29T05:05:30;24.50;45.00
46784;DHT22;32544;52.832;13.816;2022-07-29T05:06:30;24.50;45.00
46784;DHT22;32544;52.832;13.816;2022-07-29T05:07:31;24.50;44.90
46784;DHT22;32544;52.832;13.816;2022-07-29T05:08:31;24.50;44.90
46784;DHT22;32544;52.832;13.816;2022-07-29T05:09:32;24.50;44.90
46784;DHT22;32544;52.832;13.816;2022-07-29T05:10:33;24.60;44.90
46784;DHT22;32544;52.832;13.816;2022-07-29T05:11:36;24.50;44.90
46784;DHT22;32544;52.832;13.816;2022-07-29T05:12:36;24.50;45.00
46784;DHT22;32544;52.832;13.816;2022-07-29T05:13:37;24.50;45.00
46784;DHT22;32544;52.832;13.816;2022-07-29T05:14:37;24.50;45.00
46784;DHT22;32544;52.832;13.816;2022-07-29T05:15:38;24.50;45.00
46784;DHT22;32544;52.832;13.816;2022-07-29T05:16:38;24.50;45.00
46784;DHT22;32544;52.832;13.816;2022-07-29T05:17:40;24.50;45.10
46784;DHT22;32544;52.832;13.816;2022-07-29T05:18:41;24.50;45.10
46784;DHT22;32544;52.832;13.816;2022-07-29T05:19:42;24.50;45.20
46784;DHT22;32544;52.832;13.816;2022-07-29T05:20:42;24.50;45.20
46784;DHT22;32544;52.832;13.816;2022-07-29T05:21:44;24.50;45.10
46784;DHT22;32544;52.832;13.816;2022-07-29T05:22:45;24.50;45.10
46784;DHT22;32544;52.832;13.816;2022-07-29T05:23:45;24.50;45.10
46784;DHT22;32544;52.832;13.816;2022-07-29T05:24:46;24.50;45.10
46784;DHT22;32544;52.832;13.816;2022-07-29T05:25:46;24.50;45.10
46784;DHT22;32544;52.832;13.816;2022-07-29T05:26:47;24.50;45.10
46784;DHT22;32544;52.832;13.816;2022-07-29T05:27:47;24.50;45.10
46784;DHT22;32544;52.832;13.816;2022-07-29T05:28:48;24.50;45.10
46784;DHT22;32544;52.832;13.816;2022-07-29T05:29:49;24.50;45.10
46784;DHT22;32544;52.832;13.816;2022-07-29T05:30:49;24.50;45.10
46784;DHT22;32544;52.832;13.816;2022-07-29T05:31:50;24.40;45.00
46784;DHT22;32544;52.832;13.816;2022-07-29T05:32:53;24.50;45.10
46784;DHT22;32544;52.832;13.816;2022-07-29T05:33:53;24.50;45.10
46784;DHT22;32544;52.832;13.816;2022-07-29T05:34:54;24.50;45.10
46784;DHT22;32544;52.832;13.816;2022-07-29T05:35:54;24.50;45.10
46784;DHT22;32544;52.832;13.816;2022-07-29T05:36:55;24.50;45.10
46784;DHT22;32544;52.832;13.816;2022-07-29T05:37:55;24.50;45.10
46784;DHT22;32544;52.832;13.816;2022-07-29T05:38:56;24.50;45.10
46784;DHT22;32544;52.832;13.816;2022-07-29T05:39:57;24.50;45.10
46784;DHT22;32544;52.832;13.816;2022-07-29T05:40:58;24.50;45.10
46784;DHT22;32544;52.832;13.816;2022-07-29T05:41:59;24.50;45.10
46784;DHT22;32544;52.832;13.816;2022-07-29T05:43:00;24.50;45.10
46784;DHT22;32544;52.832;13.816;2022-07-29T05:44:00;24.50;45.80
46784;DHT22;32544;52.832;13.816;2022-07-29T05:45:02;24.50;45.10
46784;DHT22;32544;52.832;13.816;2022-07-29T05:46:03;24.50;45.10
46784;DHT22;32544;52.832;13.816;2022-07-29T05:47:03;24.50;45.20
46784;DHT22;32544;52.832;13.816;2022-07-29T05:48:04;24.50;45.20
46784;DHT22;32544;52.832;13.816;2022-07-29T05:49:04;24.50;45.20
46784;DHT22;32544;52.832;13.816;2022-07-29T05:50:06;24.50;45.10
46784;DHT22;32544;52.832;13.816;2022-07-29T05:51:07;24.50;45.10
46784;DHT22;32544;52.832;13.816;2022-07-29T05:52:08;24.50;45.10
46784;DHT22;32544;52.832;13.816;2022-07-29T05:53:09;24.50;45.90
46784;DHT22;32544;52.832;13.816;2022-07-29T05:54:09;24.50;45.30
46784;DHT22;32544;52.832;13.816;2022-07-29T05:55:11;24.50;45.30
46784;DHT22;32544;52.832;13.816;2022-07-29T05:56:11;24.50;45.40
46784;DHT22;32544;52.832;13.816;2022-07-29T05:57:15;24.50;45.30
46784;DHT22;32544;52.832;13.816;2022-07-29T05:58:17;24.50;45.40
46784;DHT22;32544;52.832;13.816;2022-07-29T05:59:17;24.50;45.50
46784;DHT22;32544;52.832;13.816;2022-07-29T06:00:18;24.50;45.50
46784;DHT22;32544;52.832;13.816;2022-07-29T06:01:18;24.50;45.50
46784;DHT22;32544;52.832;13.816;2022-07-29T06:02:19;24.50;45.50
46784;DHT22;32544;52.832;13.816;2022-07-29T06:03:20;24.50;45.60
46784;DHT22;32544;52.832;13.816;2022-07-29T06:04:20;24.50;45.60
46784;DHT22;32544;52.832;13.816;2022-07-29T06:05:21;24.50;45.50
46784;DHT22;32544;52.832;13.816;2022-07-29T06:06:21;24.50;45.60
46784;DHT22;32544;52.832;13.816;2022-07-29T06:07:22;24.50;45.70
46784;DHT22;32544;52.832;13.816;2022-07-29T06:08:23;24.50;45.70
46784;DHT22;32544;52.832;13.816;2022-07-29T06:09:24;24.50;45.70
46784;DHT22;32544;52.832;13.816;2022-07-29T06:10:24;24.50;45.80
46784;DHT22;32544;52.832;13.816;2022-07-29T06:11:25;24.40;45.90
46784;DHT22;32544;52.832;13.816;2022-07-29T06:12:25;24.50;45.80
46784;DHT22;32544;52.832;13.816;2022-07-29T06:13:26;24.40;45.80
46784;DHT22;32544;52.832;13.816;2022-07-29T06:14:27;24.40;45.90
46784;DHT22;32544;52.832;13.816;2022-07-29T06:15:28;24.50;45.90
46784;DHT22;32544;52.832;13.816;2022-07-29T06:16:29;24.40;45.90
46784;DHT22;32544;52.832;13.816;2022-07-29T06:17:30;24.50;46.00
46784;DHT22;32544;52.832;13.816;2022-07-29T06:18:31;24.50;45.90
46784;DHT22;32544;52.832;13.816;2022-07-29T06:19:33;24.50;45.90
46784;DHT22;32544;52.832;13.816;2022-07-29T06:20:34;24.50;45.90
46784;DHT22;32544;52.832;13.816;2022-07-29T06:21:34;24.50;45.90
46784;DHT22;32544;52.832;13.816;2022-07-29T06:22:35;24.50;45.90
46784;DHT22;32544;52.832;13.816;2022-07-29T06:23:36;24.40;46.00
46784;DHT22;32544;52.832;13.816;2022-07-29T06:24:38;24.40;46.00
46784;DHT22;32544;52.832;13.816;2022-07-29T06:25:41;24.40;46.00
46784;DHT22;32544;52.832;13.816;2022-07-29T06:26:42;24.40;46.00
46784;DHT22;32544;52.832;13.816;2022-07-29T06:27:43;24.40;46.00
46784;DHT22;32544;52.832;13.816;2022-07-29T06:28:43;24.40;46.00
46784;DHT22;32544;52.832;13.816;2022-07-29T06:29:44;24.40;46.00
46784;DHT22;32544;52.832;13.816;2022-07-29T06:30:44;24.40;46.00
46784;DHT22;32544;52.832;13.816;2022-07-29T06:31:45;24.40;45.90
46784;DHT22;32544;52.832;13.816;2022-07-29T06:32:45;24.40;45.90
46784;DHT22;32544;52.832;13.816;2022-07-29T06:33:47;24.50;46.00
46784;DHT22;32544;52.832;13.816;2022-07-29T06:34:47;24.40;45.90
46784;DHT22;32544;52.832;13.816;2022-07-29T06:35:48;24.40;45.90
46784;DHT22;32544;52.832;13.816;2022-07-29T06:36:49;24.40;45.90
46784;DHT22;32544;52.832;13.816;2022-07-29T06:37:50;24.40;46.00
46784;DHT22;32544;52.832;13.816;2022-07-29T06:38:51;24.40;45.90
46784;DHT22;32544;52.832;13.816;2022-07-29T06:39:51;24.40;46.00